This is the latest recevied weather packets stored in our database for station/object KF7PIZ. If no packets are shown the sender has not sent any weather packets the latest 1 day(s).
| Time | Temp. | Humidity | Pressure | Rain* | Wind** | Luminosity | Snow |
|---|---|---|---|---|---|---|---|
| 1778033508 | 20.56° C | 34% | 1012.5 hPa | 0 mm | 0 m/s | 14 W/m² | - |
| 1778033205 | 21.11° C | 36% | 1012.5 hPa | 0 mm | 0 m/s | 18 W/m² | - |
| 1778032903 | 21.11° C | 34% | 1012.3 hPa | 0 mm | 0 m/s | 20 W/m² | - |
| 1778032600 | 21.67° C | 35% | 1012.2 hPa | 0 mm | 0 m/s | 23 W/m² | - |
| 1778032297 | 21.67° C | 32% | 1012.1 hPa | 0 mm | 0 m/s | 24 W/m² | - |
| 1778031995 | 22.22° C | 33% | 1012.1 hPa | 0 mm | 0.45 m/s, 205° | 30 W/m² | - |
| 1778031690 | 23.33° C | 31% | 1012.1 hPa | 0 mm | 0.89 m/s, 215° | 43 W/m² | - |
| 1778031389 | 24.44° C | 31% | 1012 hPa | 0 mm | 0 m/s | 97 W/m² | - |
| 1778031085 | 25.56° C | 27% | 1012.2 hPa | 0 mm | 0 m/s | 111 W/m² | - |
| 1778030781 | 27.22° C | 26% | 1012.1 hPa | 0 mm | 0 m/s | 133 W/m² | - |
| 1778030478 | 25.56° C | 28% | 1012.3 hPa | 0 mm | 0 m/s | 147 W/m² | - |
| 1778030176 | 25° C | 28% | 1012.3 hPa | 0 mm | 0 m/s | 167 W/m² | - |
| 1778029872 | 27.22° C | 28% | 1012.3 hPa | 0 mm | 0 m/s | 195 W/m² | - |
| 1778029571 | 27.22° C | 27% | 1012.2 hPa | 0 mm | 0 m/s | 182 W/m² | - |
| 1778029268 | 25.56° C | 27% | 1012 hPa | 0 mm | 0 m/s | 207 W/m² | - |
| 1778028965 | 26.67° C | 26% | 1012.4 hPa | 0 mm | 0.89 m/s, 247° | 215 W/m² | - |
| 1778028661 | 25° C | 31% | 1012.2 hPa | 0 mm | 0 m/s | 229 W/m² | - |
| 1778028358 | 22.78° C | 31% | 1012.2 hPa | 0 mm | 0 m/s | 149 W/m² | - |
| 1778028054 | 21.67° C | 34% | 1012.5 hPa | 0 mm | 0 m/s | 42 W/m² | - |
| 1778027751 | 22.78° C | 38% | 1012.3 hPa | 0 mm | 0 m/s | 44 W/m² | - |
| 1778027447 | 22.78° C | 35% | 1012.1 hPa | 0 mm | 0 m/s | 54 W/m² | - |
| 1778027143 | 21.67° C | 34% | 1012.1 hPa | 0 mm | 0 m/s | 52 W/m² | - |
| 1778026839 | 22.22° C | 35% | 1012.3 hPa | 0 mm | 0 m/s | 62 W/m² | - |
| 1778026536 | 22.78° C | 30% | 1012.1 hPa | 0 mm | 0 m/s | 43 W/m² | - |
| 1778026233 | 22.78° C | 31% | 1012.3 hPa | 0 mm | 0 m/s | 43 W/m² | - |
* Rain latest hour (hover to see other rain measurements)
** Current wind speed in m/s (hover to see current wind gust speed)